createdAt,value
2023-04-25T00:01:06.091Z,29.50
2023-04-25T00:03:34.223Z,29.80
2023-04-25T00:06:04.075Z,29.40
2023-04-25T00:08:31.839Z,29.50
2023-04-25T00:10:59.364Z,30.20
2023-04-25T00:13:27.133Z,30.70
2023-04-25T00:15:54.583Z,30.70
2023-04-25T00:18:21.642Z,30.90
2023-04-25T00:20:49.263Z,30.30
2023-04-25T00:23:19.263Z,30.70
2023-04-25T00:25:47.232Z,29.80
2023-04-25T00:28:14.524Z,28.50
2023-04-25T00:30:42.726Z,28.20
2023-04-25T00:33:10.216Z,28.50
2023-04-25T00:35:37.410Z,28.90
2023-04-25T00:38:04.385Z,29.30
2023-04-25T00:40:31.386Z,29.90
2023-04-25T00:42:58.391Z,31.00
2023-04-25T00:45:30.936Z,31.10
2023-04-25T00:47:58.307Z,31.40
2023-04-25T00:50:26.041Z,30.50
2023-04-25T00:52:53.884Z,30.40
2023-04-25T00:55:21.214Z,30.30
2023-04-25T00:57:48.327Z,30.90
2023-04-25T01:00:16.061Z,29.50
2023-04-25T01:02:43.719Z,30.10
2023-04-25T01:05:11.390Z,29.20
2023-04-25T01:07:38.593Z,29.20
2023-04-25T01:10:07.278Z,30.30
2023-04-25T01:12:34.512Z,30.30
2023-04-25T01:15:01.871Z,30.50
2023-04-25T01:17:30.272Z,30.90
2023-04-25T01:19:57.645Z,30.70
2023-04-25T01:22:24.888Z,30.40
2023-04-25T01:24:52.331Z,30.40
2023-04-25T01:27:19.706Z,30.30
2023-04-25T01:29:47.338Z,29.90
2023-04-25T01:32:15.582Z,29.40
2023-04-25T01:34:42.819Z,29.10
2023-04-25T01:37:09.831Z,28.20
2023-04-25T01:39:36.772Z,28.20
2023-04-25T01:42:04.021Z,28.20
2023-04-25T01:44:31.282Z,27.50
2023-04-25T01:46:58.534Z,28.20
2023-04-25T01:49:25.796Z,27.60
2023-04-25T01:51:52.967Z,27.50
2023-04-25T01:54:20.096Z,27.20
2023-04-25T01:56:52.274Z,27.10
2023-04-25T01:59:20.977Z,26.70
2023-04-25T02:01:47.988Z,27.20
2023-04-25T02:04:15.188Z,27.30
2023-04-25T02:06:42.278Z,27.40
2023-04-25T02:09:09.240Z,27.60
2023-04-25T02:11:36.563Z,27.30
2023-04-25T02:14:03.608Z,26.60
2023-04-25T02:16:31.846Z,27.10
2023-04-25T02:18:59.036Z,27.70
2023-04-25T02:21:27.859Z,28.20
2023-04-25T02:23:55.013Z,27.30
2023-04-25T02:26:22.207Z,27.40
2023-04-25T02:28:49.635Z,27.20
2023-04-25T02:31:16.710Z,27.40
2023-04-25T02:33:44.852Z,27.30
2023-04-25T02:36:11.958Z,27.10
2023-04-25T02:38:39.204Z,27.10
2023-04-25T02:41:07.126Z,27.20
2023-04-25T02:43:34.191Z,27.20
2023-04-25T02:46:01.447Z,26.70
2023-04-25T02:48:29.507Z,26.70
2023-04-25T02:50:56.562Z,27.30
2023-04-25T02:53:24.032Z,27.30
2023-04-25T02:55:51.347Z,26.70
2023-04-25T02:58:18.767Z,26.60
2023-04-25T03:00:45.820Z,26.50
2023-04-25T03:03:12.930Z,27.10
2023-04-25T03:05:40.091Z,27.30
2023-04-25T03:08:07.261Z,28.20
2023-04-25T03:10:34.471Z,27.80
2023-04-25T03:13:01.547Z,27.60
2023-04-25T03:15:28.559Z,27.70
2023-04-25T03:17:56.764Z,28.60
2023-04-25T03:20:23.962Z,28.50
2023-04-25T03:22:51.473Z,28.50
2023-04-25T03:25:18.719Z,27.80
2023-04-25T03:27:45.850Z,28.10
2023-04-25T03:30:12.943Z,27.60
2023-04-25T03:32:39.930Z,27.20
2023-04-25T03:35:07.421Z,26.20
2023-04-25T03:37:35.308Z,27.10
2023-04-25T03:40:02.315Z,27.00
2023-04-25T03:42:29.410Z,26.60
2023-04-25T03:44:56.628Z,27.00
2023-04-25T03:47:23.842Z,26.80
2023-04-25T03:49:52.875Z,26.70
2023-04-25T03:52:19.958Z,26.90
2023-04-25T03:54:46.998Z,27.50
2023-04-25T03:57:14.250Z,28.10
2023-04-25T03:59:41.479Z,29.10
2023-04-25T04:02:08.430Z,28.90
2023-04-25T04:04:35.816Z,28.50
2023-04-25T04:07:03.339Z,28.80
2023-04-25T04:09:30.352Z,29.60
2023-04-25T04:11:57.489Z,29.70
2023-04-25T04:14:24.512Z,29.40
2023-04-25T04:16:52.576Z,29.70
2023-04-25T04:19:19.729Z,29.50
2023-04-25T04:21:46.935Z,29.30
2023-04-25T04:24:13.884Z,28.90
2023-04-25T04:26:40.951Z,29.50
2023-04-25T04:29:08.153Z,29.60
2023-04-25T04:31:35.203Z,29.60
2023-04-25T04:34:02.891Z,29.60
2023-04-25T04:36:29.984Z,29.50
2023-04-25T04:38:57.578Z,29.10
2023-04-25T04:41:24.808Z,28.80
2023-04-25T04:43:52.174Z,28.40
2023-04-25T04:46:19.596Z,28.00
2023-04-25T04:48:46.762Z,27.50
2023-04-25T04:51:13.918Z,28.40
2023-04-25T04:53:40.869Z,28.30
2023-04-25T04:56:07.977Z,28.50
2023-04-25T04:58:35.314Z,28.20
2023-04-25T05:01:02.369Z,27.30
2023-04-25T05:03:29.773Z,27.20
2023-04-25T05:05:56.896Z,27.60
2023-04-25T05:08:23.837Z,27.40
2023-04-25T05:10:51.186Z,27.30
2023-04-25T05:13:18.242Z,27.30
2023-04-25T05:15:45.502Z,27.90
2023-04-25T05:18:12.654Z,27.80
2023-04-25T05:20:40.180Z,28.30
2023-04-25T05:23:07.499Z,28.20
2023-04-25T05:25:34.455Z,28.10
2023-04-25T05:28:01.516Z,28.50
2023-04-25T05:30:28.699Z,29.10
2023-04-25T05:32:55.834Z,29.50
2023-04-25T05:35:23.015Z,29.50
2023-04-25T05:37:50.139Z,29.30
2023-04-25T05:40:17.130Z,29.20
2023-04-25T05:42:44.482Z,28.90
2023-04-25T05:45:11.777Z,29.10
2023-04-25T05:47:38.820Z,29.00
2023-04-25T05:50:06.754Z,29.20
2023-04-25T05:52:33.701Z,29.30
2023-04-25T05:55:00.757Z,29.20
2023-04-25T05:57:28.777Z,29.50
2023-04-25T05:59:56.036Z,30.50
2023-04-25T06:02:23.409Z,31.20
2023-04-25T06:04:54.279Z,31.00
2023-04-25T06:07:21.545Z,30.40
2023-04-25T06:09:48.481Z,31.10
2023-04-25T06:12:15.656Z,31.10
2023-04-25T06:14:42.660Z,30.70
2023-04-25T06:17:09.901Z,30.30
2023-04-25T06:19:37.613Z,30.00
2023-04-25T06:22:04.823Z,30.20
2023-04-25T06:24:31.864Z,30.60
2023-04-25T06:26:58.902Z,31.50
2023-04-25T06:29:25.886Z,31.50
2023-04-25T06:31:53.576Z,30.50
2023-04-25T06:34:20.791Z,29.90
2023-04-25T06:36:47.717Z,29.90
2023-04-25T06:39:14.834Z,30.70
2023-04-25T06:41:41.932Z,30.80
2023-04-25T06:44:09.034Z,31.00
2023-04-25T06:46:36.225Z,31.10
2023-04-25T06:49:03.310Z,31.70
2023-04-25T06:51:31.697Z,30.70
2023-04-25T06:53:58.825Z,30.30
2023-04-25T06:56:25.898Z,30.40
2023-04-25T06:58:53.061Z,30.30
2023-04-25T07:01:21.476Z,30.60
2023-04-25T07:03:48.904Z,31.30
2023-04-25T07:06:16.201Z,32.80
2023-04-25T07:08:43.393Z,33.10
2023-04-25T07:11:10.503Z,33.80
2023-04-25T07:13:37.590Z,34.20
2023-04-25T07:16:05.518Z,33.90
2023-04-25T07:18:32.636Z,34.10
2023-04-25T07:20:59.746Z,34.40
2023-04-25T07:23:26.853Z,34.90
2023-04-25T07:25:53.975Z,34.60
2023-04-25T07:28:21.385Z,34.30
2023-04-25T07:30:48.440Z,33.80
2023-04-25T07:33:15.801Z,33.70
2023-04-25T07:35:42.942Z,32.50
2023-04-25T07:38:11.518Z,32.80
2023-04-25T07:40:38.929Z,33.30
2023-04-25T07:43:05.969Z,33.90
2023-04-25T07:45:33.300Z,34.30
2023-04-25T07:48:00.433Z,34.60
2023-04-25T07:50:27.506Z,34.90
2023-04-25T07:52:54.655Z,33.90
2023-04-25T07:55:21.653Z,33.00
2023-04-25T07:57:48.666Z,34.30
2023-04-25T08:00:16.223Z,34.30
2023-04-25T08:02:43.284Z,32.60
2023-04-25T08:05:13.321Z,30.80
2023-04-25T08:07:41.318Z,30.60
2023-04-25T08:10:09.274Z,31.70
2023-04-25T08:12:36.399Z,32.70
2023-04-25T08:15:03.612Z,32.40
2023-04-25T08:17:30.706Z,31.40
2023-04-25T08:19:58.178Z,32.10
2023-04-25T08:22:25.472Z,31.40
2023-04-25T08:24:52.591Z,30.50
2023-04-25T08:27:20.150Z,30.70
2023-04-25T08:29:47.142Z,30.30
2023-04-25T08:32:14.579Z,30.20
2023-04-25T08:34:43.380Z,29.90
2023-04-25T08:37:10.927Z,29.80
2023-04-25T08:39:38.515Z,30.10
2023-04-25T08:42:11.308Z,30.00
2023-04-25T08:44:39.081Z,29.70
2023-04-25T08:47:07.072Z,29.80
2023-04-25T08:49:35.140Z,29.80
2023-04-25T08:52:06.816Z,30.20
2023-04-25T08:54:36.544Z,30.50
2023-04-25T08:57:05.568Z,31.40
2023-04-25T08:59:33.987Z,32.00
2023-04-25T09:02:02.003Z,32.10
2023-04-25T09:04:31.750Z,30.80
2023-04-25T09:06:59.631Z,30.00
2023-04-25T09:09:26.674Z,30.30
2023-04-25T09:11:56.090Z,29.50
2023-04-25T09:14:24.230Z,28.70
2023-04-25T09:16:57.461Z,28.30
2023-04-25T09:19:38.817Z,28.20
2023-04-25T09:22:09.397Z,28.30
2023-04-25T09:24:51.110Z,29.00
2023-04-25T09:27:26.326Z,28.00
2023-04-25T09:30:01.812Z,28.20
2023-04-25T09:32:29.108Z,28.10
2023-04-25T09:34:59.138Z,29.00
2023-04-25T09:37:28.238Z,28.80
2023-04-25T09:40:00.393Z,28.80
2023-04-25T09:42:30.124Z,28.40
2023-04-25T09:44:58.245Z,29.30
2023-04-25T09:47:28.074Z,30.20
2023-04-25T09:49:56.255Z,32.00
2023-04-25T09:52:26.507Z,32.80
2023-04-25T09:54:54.159Z,31.60
2023-04-25T09:57:23.554Z,31.70
2023-04-25T09:59:53.406Z,31.40
2023-04-25T10:02:23.078Z,31.80
2023-04-25T10:04:56.282Z,32.40
2023-04-25T10:07:29.566Z,32.30
2023-04-25T10:10:02.856Z,32.00
2023-04-25T10:12:32.122Z,31.70
2023-04-25T10:14:59.918Z,31.80
2023-04-25T10:17:29.085Z,32.40
2023-04-25T10:19:56.868Z,32.50
2023-04-25T10:22:40.712Z,32.30
2023-04-25T10:25:09.473Z,32.10
2023-04-25T10:27:38.123Z,31.70
2023-04-25T10:30:11.266Z,32.30
2023-04-25T10:32:38.492Z,32.30
2023-04-25T10:35:19.548Z,33.10
2023-04-25T10:38:06.605Z,32.90
2023-04-25T10:40:34.732Z,34.00
2023-04-25T10:43:32.304Z,34.50
2023-04-25T10:46:01.819Z,34.50
2023-04-25T10:48:30.250Z,32.40
2023-04-25T10:51:16.943Z,31.30
2023-04-25T10:53:46.250Z,31.30
2023-04-25T10:56:14.580Z,31.50
2023-04-25T10:58:49.468Z,31.60
2023-04-25T11:01:25.561Z,31.30
2023-04-25T11:03:59.692Z,31.10
2023-04-25T11:07:04.657Z,31.30
2023-04-25T11:09:41.243Z,30.10
2023-04-25T11:12:13.058Z,30.30
2023-04-25T11:17:08.061Z,30.40
2023-04-25T11:19:35.163Z,30.00
2023-04-25T11:22:03.178Z,30.50
2023-04-25T11:24:31.523Z,30.70
2023-04-25T11:27:05.987Z,30.00
2023-04-25T11:29:36.345Z,28.90
2023-04-25T11:32:03.608Z,28.80
2023-04-25T11:34:31.994Z,28.90
2023-04-25T11:36:59.710Z,29.10
2023-04-25T11:39:28.061Z,28.70
2023-04-25T11:41:55.748Z,29.90
2023-04-25T11:44:23.414Z,30.50
2023-04-25T11:46:50.550Z,30.80
2023-04-25T11:49:19.486Z,30.10
2023-04-25T11:51:48.509Z,29.90
2023-04-25T11:54:16.799Z,29.30
2023-04-25T11:56:47.451Z,29.60
2023-04-25T11:59:15.341Z,29.60
2023-04-25T12:01:48.703Z,30.20
2023-04-25T12:04:21.683Z,30.40
2023-04-25T12:06:53.217Z,30.10
2023-04-25T12:09:30.398Z,30.30
2023-04-25T12:11:59.961Z,30.30
2023-04-25T12:14:33.628Z,30.90
2023-04-25T12:17:02.874Z,30.60
2023-04-25T12:19:37.566Z,30.90
2023-04-25T12:22:19.862Z,30.70
2023-04-25T12:24:47.185Z,30.10
2023-04-25T12:27:17.407Z,30.10
2023-04-25T12:29:53.891Z,31.50
2023-04-25T12:32:21.452Z,32.00
2023-04-25T12:34:48.554Z,31.20
2023-04-25T12:37:16.316Z,30.90
2023-04-25T12:39:43.303Z,30.60
2023-04-25T12:42:13.029Z,30.30
2023-04-25T12:44:41.193Z,29.90
2023-04-25T12:47:08.485Z,29.80
2023-04-25T12:49:36.014Z,30.00
2023-04-25T12:52:03.094Z,29.10
2023-04-25T12:54:30.120Z,29.00
2023-04-25T12:56:57.461Z,29.10
2023-04-25T12:59:24.574Z,28.90
2023-04-25T13:01:51.604Z,28.50
2023-04-25T13:04:18.862Z,28.60
2023-04-25T13:06:46.123Z,29.10
2023-04-25T13:09:13.638Z,28.80
2023-04-25T13:11:42.564Z,29.30
2023-04-25T13:14:09.789Z,29.80
2023-04-25T13:16:36.930Z,29.20
2023-04-25T13:19:04.035Z,29.10
2023-04-25T13:21:33.632Z,29.40
2023-04-25T13:24:01.121Z,30.50
2023-04-25T13:26:28.176Z,31.40
2023-04-25T13:28:55.288Z,31.80
2023-04-25T13:31:22.392Z,31.70
2023-04-25T13:33:49.950Z,31.60
2023-04-25T13:36:17.265Z,31.00
2023-04-25T13:38:46.039Z,31.20
2023-04-25T13:41:18.752Z,30.50
2023-04-25T13:43:48.842Z,30.30
2023-04-25T13:46:35.336Z,31.00
2023-04-25T13:49:11.637Z,30.30
2023-04-25T13:51:43.622Z,29.70
2023-04-25T13:54:11.321Z,29.70
2023-04-25T13:56:38.371Z,29.00
2023-04-25T13:59:05.324Z,29.80
2023-04-25T14:01:35.465Z,30.40
2023-04-25T14:04:05.019Z,30.30
2023-04-25T14:06:33.319Z,31.10
2023-04-25T14:09:02.322Z,31.60
2023-04-25T14:11:29.370Z,31.20
2023-04-25T14:13:56.330Z,30.40
2023-04-25T14:16:24.476Z,30.20
2023-04-25T14:18:51.640Z,30.10
2023-04-25T14:21:18.949Z,29.00
2023-04-25T14:23:46.408Z,28.50
2023-04-25T14:26:13.744Z,28.30
2023-04-25T14:28:40.857Z,27.80
2023-04-25T14:31:08.529Z,28.10
2023-04-25T14:33:35.884Z,28.20
2023-04-25T14:36:03.521Z,28.40
2023-04-25T14:38:30.695Z,28.50
2023-04-25T14:40:57.669Z,29.20
2023-04-25T14:43:24.763Z,30.10
2023-04-25T14:45:51.858Z,30.40
2023-04-25T14:48:20.728Z,30.80
2023-04-25T14:50:47.993Z,31.00
2023-04-25T14:53:14.991Z,31.10
2023-04-25T14:55:42.365Z,31.60
2023-04-25T14:58:09.458Z,30.70
2023-04-25T15:00:36.643Z,31.00
2023-04-25T15:03:05.254Z,31.50
2023-04-25T15:05:32.571Z,33.00
2023-04-25T15:07:59.516Z,33.10
2023-04-25T15:10:26.568Z,33.70
2023-04-25T15:12:54.714Z,34.20
2023-04-25T15:15:26.451Z,34.00
2023-04-25T15:17:58.653Z,33.80
2023-04-25T15:20:27.962Z,33.60
2023-04-25T15:22:55.609Z,33.10
2023-04-25T15:25:23.307Z,33.20
2023-04-25T15:27:50.627Z,31.80
2023-04-25T15:30:18.729Z,31.80
2023-04-25T15:32:47.170Z,32.00
2023-04-25T15:35:15.997Z,31.30
2023-04-25T15:37:43.062Z,30.80
2023-04-25T15:40:16.480Z,31.30
2023-04-25T15:42:53.384Z,32.60
2023-04-25T15:45:26.531Z,32.20
2023-04-25T15:47:57.008Z,31.80
2023-04-25T15:50:24.978Z,31.50
2023-04-25T15:52:52.748Z,31.50
2023-04-25T15:55:23.708Z,31.50
2023-04-25T15:57:51.540Z,31.20
2023-04-25T16:00:21.523Z,31.60
2023-04-25T16:02:48.818Z,31.80
2023-04-25T16:05:16.647Z,31.30
2023-04-25T16:07:44.879Z,32.00
2023-04-25T16:10:12.901Z,32.00
2023-04-25T16:12:42.998Z,32.10
2023-04-25T16:15:10.505Z,32.70
2023-04-25T16:17:37.909Z,32.40
2023-04-25T16:20:15.008Z,32.40
2023-04-25T16:22:43.682Z,32.60
2023-04-25T16:25:12.223Z,32.00
2023-04-25T16:27:39.755Z,32.90
2023-04-25T16:30:09.464Z,32.70
2023-04-25T16:32:38.171Z,33.30
2023-04-25T16:35:05.875Z,32.60
2023-04-25T16:37:33.070Z,31.50
2023-04-25T16:40:00.036Z,31.60
2023-04-25T16:42:27.138Z,31.60
2023-04-25T16:44:54.462Z,31.50
2023-04-25T16:47:21.520Z,30.70
2023-04-25T16:49:48.595Z,31.40
2023-04-25T16:52:16.353Z,31.10
2023-04-25T16:54:43.550Z,31.20
2023-04-25T16:57:11.498Z,31.50
2023-04-25T16:59:39.356Z,31.50
2023-04-25T17:02:08.412Z,31.70
2023-04-25T17:04:36.025Z,31.60
2023-04-25T17:07:03.082Z,31.80
2023-04-25T17:09:30.670Z,32.60
2023-04-25T17:11:57.980Z,32.40
2023-04-25T17:14:25.381Z,32.70
2023-04-25T17:16:52.515Z,32.90
2023-04-25T17:19:19.627Z,32.30
2023-04-25T17:21:46.954Z,31.20
2023-04-25T17:24:15.868Z,31.30
2023-04-25T17:26:43.062Z,31.10
2023-04-25T17:29:10.529Z,32.00
2023-04-25T17:31:38.129Z,32.20
2023-04-25T17:34:05.531Z,32.70
2023-04-25T17:36:35.131Z,32.40
2023-04-25T17:39:02.267Z,32.50
2023-04-25T17:41:29.436Z,32.10
2023-04-25T17:43:56.557Z,31.70
2023-04-25T17:46:23.542Z,31.80
2023-04-25T17:48:52.173Z,30.80
2023-04-25T17:51:19.684Z,30.70
2023-04-25T17:53:49.580Z,29.80
2023-04-25T17:56:26.739Z,30.40
2023-04-25T17:58:54.924Z,29.50
2023-04-25T18:01:24.613Z,29.40
2023-04-25T18:03:52.377Z,29.40
2023-04-25T18:06:19.804Z,29.90
2023-04-25T18:08:47.852Z,29.60
2023-04-25T18:11:14.874Z,30.20
2023-04-25T18:13:42.129Z,31.30
2023-04-25T18:16:10.611Z,32.30
2023-04-25T18:18:38.105Z,32.00
2023-04-25T18:21:09.372Z,31.60
2023-04-25T18:23:37.934Z,31.40
2023-04-25T18:26:05.677Z,32.20
2023-04-25T18:28:34.547Z,31.90
2023-04-25T18:31:01.625Z,30.70
2023-04-25T18:33:28.924Z,30.60
2023-04-25T18:35:59.863Z,31.00
2023-04-25T18:41:08.219Z,30.30
2023-04-25T18:43:44.602Z,30.30
2023-04-25T18:46:12.729Z,29.80
2023-04-25T18:48:41.077Z,30.40
2023-04-25T18:51:08.123Z,29.80
2023-04-25T18:53:35.455Z,29.10
2023-04-25T18:56:02.639Z,29.00
2023-04-25T18:58:29.672Z,28.90
2023-04-25T19:00:56.866Z,28.90
2023-04-25T19:03:24.292Z,29.00
2023-04-25T19:05:51.930Z,30.00
2023-04-25T19:08:19.139Z,29.90
2023-04-25T19:10:46.657Z,28.70
2023-04-25T19:13:14.164Z,28.70
2023-04-25T19:15:41.128Z,28.50
2023-04-25T19:18:08.436Z,29.40
2023-04-25T19:20:35.979Z,30.10
2023-04-25T19:23:04.729Z,30.70
2023-04-25T19:25:32.262Z,31.30
2023-04-25T19:28:00.808Z,31.50
2023-04-25T19:30:31.774Z,30.80
2023-04-25T19:32:59.153Z,31.00
2023-04-25T19:35:30.928Z,30.40
2023-04-25T19:37:58.240Z,30.30
2023-04-25T19:40:26.172Z,29.70
2023-04-25T19:42:53.299Z,28.70
2023-04-25T19:45:21.009Z,28.80
2023-04-25T19:47:48.437Z,28.70
2023-04-25T19:50:15.815Z,28.60
2023-04-25T19:52:42.909Z,28.10
2023-04-25T19:55:10.997Z,27.80
2023-04-25T19:57:38.368Z,27.60
2023-04-25T20:00:12.116Z,27.90
2023-04-25T20:02:39.834Z,28.50
2023-04-25T20:05:08.486Z,28.30
2023-04-25T20:07:35.767Z,27.90
2023-04-25T20:10:04.151Z,27.60
2023-04-25T20:12:31.132Z,27.50
2023-04-25T20:14:59.084Z,27.30
2023-04-25T20:17:26.414Z,27.70
2023-04-25T20:19:53.812Z,27.70
2023-04-25T20:22:23.045Z,27.90
2023-04-25T20:24:50.056Z,27.50
2023-04-25T20:27:17.322Z,27.30
2023-04-25T20:29:46.253Z,26.50
2023-04-25T20:32:13.438Z,26.10
2023-04-25T20:34:40.601Z,26.00
2023-04-25T20:37:09.030Z,25.50
2023-04-25T20:39:36.211Z,26.00
2023-04-25T20:42:04.653Z,25.80
2023-04-25T20:44:32.320Z,26.40
2023-04-25T20:46:59.398Z,27.10
2023-04-25T20:49:26.755Z,26.80
2023-04-25T20:51:53.951Z,26.80
2023-04-25T20:54:20.942Z,26.60
2023-04-25T20:56:47.993Z,26.90
2023-04-25T20:59:15.417Z,27.50
2023-04-25T21:01:42.501Z,27.70
2023-04-25T21:04:10.222Z,27.50
2023-04-25T21:06:37.285Z,26.70
2023-04-25T21:09:04.938Z,26.70
2023-04-25T21:11:32.024Z,26.70
2023-04-25T21:13:59.019Z,26.70
2023-04-25T21:16:26.083Z,26.70
2023-04-25T21:18:53.319Z,27.10
2023-04-25T21:21:21.603Z,26.80
2023-04-25T21:23:49.054Z,27.30
2023-04-25T21:26:16.348Z,27.50
2023-04-25T21:28:43.400Z,27.60
2023-04-25T21:31:10.406Z,26.80
2023-04-25T21:33:37.855Z,27.10
2023-04-25T21:36:05.248Z,27.60
2023-04-25T21:38:32.407Z,27.60
2023-04-25T21:40:59.475Z,27.40
2023-04-25T21:43:26.532Z,27.00
2023-04-25T21:46:20.896Z,27.30
2023-04-25T21:48:40.749Z,27.60
2023-04-25T21:51:07.803Z,27.70
2023-04-25T21:53:34.813Z,27.50
2023-04-25T21:56:02.062Z,27.60
2023-04-25T21:58:29.080Z,28.10
2023-04-25T22:01:00.164Z,28.00
2023-04-25T22:03:27.228Z,28.10
2023-04-25T22:05:54.436Z,28.90
2023-04-25T22:08:21.985Z,28.90
2023-04-25T22:10:49.753Z,28.70
2023-04-25T22:13:16.800Z,27.80
2023-04-25T22:15:43.769Z,27.00
2023-04-25T22:18:11.280Z,26.30
2023-04-25T22:20:39.083Z,26.80
2023-04-25T22:23:06.095Z,27.80
2023-04-25T22:25:33.237Z,26.90
2023-04-25T22:28:00.366Z,26.10
2023-04-25T22:30:30.693Z,26.10
2023-04-25T22:32:58.417Z,26.10
2023-04-25T22:35:25.591Z,26.40
2023-04-25T22:37:53.418Z,26.10
2023-04-25T22:40:21.016Z,26.70
2023-04-25T22:42:48.126Z,27.40
2023-04-25T22:45:16.170Z,27.20
2023-04-25T22:47:43.388Z,26.40
2023-04-25T22:50:13.973Z,26.40
2023-04-25T22:52:42.665Z,26.40
2023-04-25T22:55:11.051Z,26.70
2023-04-25T22:57:38.993Z,26.50
2023-04-25T23:00:26.504Z,26.20
2023-04-25T23:02:54.076Z,26.40
2023-04-25T23:05:21.125Z,26.60
2023-04-25T23:07:48.953Z,26.60
2023-04-25T23:10:16.259Z,25.60
2023-04-25T23:12:43.747Z,25.10
2023-04-25T23:15:12.461Z,25.30
2023-04-25T23:17:40.323Z,24.80
2023-04-25T23:20:10.738Z,24.80
2023-04-25T23:22:39.682Z,24.70
2023-04-25T23:25:07.827Z,25.70
2023-04-25T23:27:35.162Z,25.40
2023-04-25T23:30:02.196Z,25.20
2023-04-25T23:32:29.194Z,25.20
2023-04-25T23:34:56.284Z,26.00
2023-04-25T23:37:23.765Z,25.90
2023-04-25T23:39:51.091Z,25.60
2023-04-25T23:42:18.902Z,25.90
2023-04-25T23:44:45.888Z,26.30
2023-04-25T23:47:14.524Z,25.60
2023-04-25T23:49:42.153Z,26.30
2023-04-25T23:52:09.161Z,25.00
2023-04-25T23:54:36.380Z,24.80
2023-04-25T23:57:06.378Z,25.30
2023-04-25T23:59:33.627Z,25.50
